sensor_id;sensor_type;location;lat;lon;timestamp;temperature;humidity
54264;DHT22;40178;53.042;6.406;2023-07-16T00:02:07;15.60;1.00
54264;DHT22;40178;53.042;6.406;2023-07-16T00:04:33;15.60;1.00
54264;DHT22;40178;53.042;6.406;2023-07-16T00:07:01;15.60;1.00
54264;DHT22;40178;53.042;6.406;2023-07-16T00:09:27;15.60;1.00
54264;DHT22;40178;53.042;6.406;2023-07-16T00:11:53;15.60;1.00
54264;DHT22;40178;53.042;6.406;2023-07-16T00:14:19;15.60;1.00
54264;DHT22;40178;53.042;6.406;2023-07-16T00:16:44;15.50;1.00
54264;DHT22;40178;53.042;6.406;2023-07-16T00:19:11;15.50;1.00
54264;DHT22;40178;53.042;6.406;2023-07-16T00:21:37;15.60;1.00
54264;DHT22;40178;53.042;6.406;2023-07-16T00:24:03;15.50;1.00
54264;DHT22;40178;53.042;6.406;2023-07-16T00:26:29;15.50;1.00
54264;DHT22;40178;53.042;6.406;2023-07-16T00:28:54;15.50;1.00
54264;DHT22;40178;53.042;6.406;2023-07-16T00:31:20;15.50;1.00
54264;DHT22;40178;53.042;6.406;2023-07-16T00:33:45;15.50;1.00
54264;DHT22;40178;53.042;6.406;2023-07-16T00:36:11;15.50;1.00
54264;DHT22;40178;53.042;6.406;2023-07-16T00:38:37;15.50;1.00
54264;DHT22;40178;53.042;6.406;2023-07-16T00:41:02;15.50;1.00
54264;DHT22;40178;53.042;6.406;2023-07-16T00:43:28;15.50;1.00
54264;DHT22;40178;53.042;6.406;2023-07-16T00:45:54;15.50;1.00
54264;DHT22;40178;53.042;6.406;2023-07-16T00:48:20;15.50;1.00
54264;DHT22;40178;53.042;6.406;2023-07-16T00:50:46;15.50;1.00
54264;DHT22;40178;53.042;6.406;2023-07-16T00:53:12;15.60;1.00
54264;DHT22;40178;53.042;6.406;2023-07-16T00:55:38;15.70;1.00
54264;DHT22;40178;53.042;6.406;2023-07-16T00:58:07;15.70;1.00
54264;DHT22;40178;53.042;6.406;2023-07-16T01:00:38;15.80;1.00
54264;DHT22;40178;53.042;6.406;2023-07-16T01:03:06;15.80;1.00
54264;DHT22;40178;53.042;6.406;2023-07-16T01:08:11;15.80;1.00
54264;DHT22;40178;53.042;6.406;2023-07-16T01:10:41;15.80;1.00
54264;DHT22;40178;53.042;6.406;2023-07-16T01:13:07;15.80;1.00
54264;DHT22;40178;53.042;6.406;2023-07-16T01:15:33;15.70;1.00
54264;DHT22;40178;53.042;6.406;2023-07-16T01:17:58;15.60;1.00
54264;DHT22;40178;53.042;6.406;2023-07-16T01:20:24;15.60;1.00
54264;DHT22;40178;53.042;6.406;2023-07-16T01:23:30;15.50;1.00
54264;DHT22;40178;53.042;6.406;2023-07-16T01:28:44;15.50;1.00
54264;DHT22;40178;53.042;6.406;2023-07-16T01:31:17;15.40;1.00
54264;DHT22;40178;53.042;6.406;2023-07-16T01:33:43;15.50;1.00
54264;DHT22;40178;53.042;6.406;2023-07-16T01:36:09;15.50;1.00
54264;DHT22;40178;53.042;6.406;2023-07-16T01:38:36;15.60;1.00
54264;DHT22;40178;53.042;6.406;2023-07-16T01:41:02;15.60;1.00
54264;DHT22;40178;53.042;6.406;2023-07-16T01:43:27;15.60;1.00
54264;DHT22;40178;53.042;6.406;2023-07-16T01:45:53;15.60;1.00
54264;DHT22;40178;53.042;6.406;2023-07-16T01:50:47;15.50;1.00
54264;DHT22;40178;53.042;6.406;2023-07-16T01:53:13;15.60;1.00
54264;DHT22;40178;53.042;6.406;2023-07-16T01:55:38;15.60;1.00
54264;DHT22;40178;53.042;6.406;2023-07-16T01:58:04;15.60;1.00
54264;DHT22;40178;53.042;6.406;2023-07-16T02:00:31;15.60;1.00
54264;DHT22;40178;53.042;6.406;2023-07-16T02:02:56;15.60;1.00
54264;DHT22;40178;53.042;6.406;2023-07-16T02:05:22;15.60;1.00
54264;DHT22;40178;53.042;6.406;2023-07-16T02:07:48;15.50;1.00
54264;DHT22;40178;53.042;6.406;2023-07-16T02:10:13;15.70;1.00
54264;DHT22;40178;53.042;6.406;2023-07-16T02:12:39;15.60;1.00
54264;DHT22;40178;53.042;6.406;2023-07-16T02:15:05;15.60;1.00
54264;DHT22;40178;53.042;6.406;2023-07-16T02:17:31;15.60;1.00
54264;DHT22;40178;53.042;6.406;2023-07-16T02:19:56;15.60;1.00
54264;DHT22;40178;53.042;6.406;2023-07-16T02:22:22;15.60;1.00
54264;DHT22;40178;53.042;6.406;2023-07-16T02:24:47;15.60;1.00
54264;DHT22;40178;53.042;6.406;2023-07-16T02:27:13;15.60;1.00
54264;DHT22;40178;53.042;6.406;2023-07-16T02:29:38;15.70;1.00
54264;DHT22;40178;53.042;6.406;2023-07-16T02:32:04;15.70;1.00
54264;DHT22;40178;53.042;6.406;2023-07-16T02:34:30;15.70;1.00
54264;DHT22;40178;53.042;6.406;2023-07-16T02:36:55;15.60;1.00
54264;DHT22;40178;53.042;6.406;2023-07-16T02:39:21;15.70;1.00
54264;DHT22;40178;53.042;6.406;2023-07-16T02:41:47;15.70;1.00
54264;DHT22;40178;53.042;6.406;2023-07-16T02:44:12;15.60;1.00
54264;DHT22;40178;53.042;6.406;2023-07-16T02:46:38;15.70;1.00
54264;DHT22;40178;53.042;6.406;2023-07-16T02:49:03;15.70;1.00
54264;DHT22;40178;53.042;6.406;2023-07-16T02:51:30;15.60;1.00
54264;DHT22;40178;53.042;6.406;2023-07-16T02:53:55;15.60;1.00
54264;DHT22;40178;53.042;6.406;2023-07-16T02:56:21;15.60;1.00
54264;DHT22;40178;53.042;6.406;2023-07-16T02:58:46;15.60;1.00
54264;DHT22;40178;53.042;6.406;2023-07-16T03:01:12;15.50;1.00
54264;DHT22;40178;53.042;6.406;2023-07-16T03:03:38;15.50;1.00
54264;DHT22;40178;53.042;6.406;2023-07-16T03:06:04;15.50;1.00
54264;DHT22;40178;53.042;6.406;2023-07-16T03:08:29;15.50;1.00
54264;DHT22;40178;53.042;6.406;2023-07-16T03:10:57;15.50;1.00
54264;DHT22;40178;53.042;6.406;2023-07-16T03:13:23;15.50;1.00
54264;DHT22;40178;53.042;6.406;2023-07-16T03:15:48;15.50;1.00
54264;DHT22;40178;53.042;6.406;2023-07-16T03:18:15;15.40;1.00
54264;DHT22;40178;53.042;6.406;2023-07-16T03:20:41;15.40;1.00
54264;DHT22;40178;53.042;6.406;2023-07-16T03:23:07;15.40;1.00
54264;DHT22;40178;53.042;6.406;2023-07-16T03:25:32;15.40;1.00
54264;DHT22;40178;53.042;6.406;2023-07-16T03:27:58;15.40;1.00
54264;DHT22;40178;53.042;6.406;2023-07-16T03:30:23;15.40;1.00
54264;DHT22;40178;53.042;6.406;2023-07-16T03:32:49;15.40;1.00
54264;DHT22;40178;53.042;6.406;2023-07-16T03:35:14;15.40;1.00
54264;DHT22;40178;53.042;6.406;2023-07-16T03:37:40;15.40;1.00
54264;DHT22;40178;53.042;6.406;2023-07-16T03:40:13;15.40;1.00
54264;DHT22;40178;53.042;6.406;2023-07-16T03:42:40;15.40;1.00
54264;DHT22;40178;53.042;6.406;2023-07-16T03:45:06;15.40;1.00
54264;DHT22;40178;53.042;6.406;2023-07-16T03:47:32;15.30;1.00
54264;DHT22;40178;53.042;6.406;2023-07-16T03:49:58;15.30;1.00
54264;DHT22;40178;53.042;6.406;2023-07-16T03:52:23;15.30;1.00
54264;DHT22;40178;53.042;6.406;2023-07-16T03:54:50;15.30;1.00
54264;DHT22;40178;53.042;6.406;2023-07-16T03:57:16;15.30;1.00
54264;DHT22;40178;53.042;6.406;2023-07-16T03:59:42;15.40;1.00
54264;DHT22;40178;53.042;6.406;2023-07-16T04:02:08;15.40;1.00
54264;DHT22;40178;53.042;6.406;2023-07-16T04:04:34;15.40;1.00
54264;DHT22;40178;53.042;6.406;2023-07-16T04:06:59;15.40;1.00
54264;DHT22;40178;53.042;6.406;2023-07-16T04:09:25;15.30;1.00
54264;DHT22;40178;53.042;6.406;2023-07-16T04:11:51;15.40;1.00
54264;DHT22;40178;53.042;6.406;2023-07-16T04:14:16;15.40;1.00
54264;DHT22;40178;53.042;6.406;2023-07-16T04:16:42;15.40;1.00
54264;DHT22;40178;53.042;6.406;2023-07-16T04:19:08;15.40;1.00
54264;DHT22;40178;53.042;6.406;2023-07-16T04:21:35;15.40;1.00
54264;DHT22;40178;53.042;6.406;2023-07-16T04:24:02;15.50;1.00
54264;DHT22;40178;53.042;6.406;2023-07-16T04:26:28;15.50;1.00
54264;DHT22;40178;53.042;6.406;2023-07-16T04:28:54;15.50;1.00
54264;DHT22;40178;53.042;6.406;2023-07-16T04:31:19;15.60;1.00
54264;DHT22;40178;53.042;6.406;2023-07-16T04:33:45;15.60;1.00
54264;DHT22;40178;53.042;6.406;2023-07-16T04:36:11;15.70;1.00
54264;DHT22;40178;53.042;6.406;2023-07-16T04:38:36;15.70;1.00
54264;DHT22;40178;53.042;6.406;2023-07-16T04:41:02;15.80;1.00
54264;DHT22;40178;53.042;6.406;2023-07-16T04:43:28;15.90;1.00
54264;DHT22;40178;53.042;6.406;2023-07-16T04:45:53;15.90;1.00
54264;DHT22;40178;53.042;6.406;2023-07-16T04:48:19;15.90;1.00
54264;DHT22;40178;53.042;6.406;2023-07-16T04:50:44;16.00;1.00
54264;DHT22;40178;53.042;6.406;2023-07-16T04:53:10;16.10;1.00
54264;DHT22;40178;53.042;6.406;2023-07-16T04:55:39;16.10;1.00
54264;DHT22;40178;53.042;6.406;2023-07-16T04:58:05;16.10;1.00
54264;DHT22;40178;53.042;6.406;2023-07-16T05:00:32;16.20;1.00
54264;DHT22;40178;53.042;6.406;2023-07-16T05:02:58;16.10;1.00
54264;DHT22;40178;53.042;6.406;2023-07-16T05:05:24;16.10;1.00
54264;DHT22;40178;53.042;6.406;2023-07-16T05:07:50;16.20;1.00
54264;DHT22;40178;53.042;6.406;2023-07-16T05:10:15;16.20;1.00
54264;DHT22;40178;53.042;6.406;2023-07-16T05:12:41;16.30;1.00
54264;DHT22;40178;53.042;6.406;2023-07-16T05:15:07;16.30;1.00
54264;DHT22;40178;53.042;6.406;2023-07-16T05:17:33;16.50;1.00
54264;DHT22;40178;53.042;6.406;2023-07-16T05:19:58;16.70;1.00
54264;DHT22;40178;53.042;6.406;2023-07-16T05:22:24;16.60;1.00
54264;DHT22;40178;53.042;6.406;2023-07-16T05:24:50;16.60;1.00
54264;DHT22;40178;53.042;6.406;2023-07-16T05:27:15;16.80;1.00
54264;DHT22;40178;53.042;6.406;2023-07-16T05:29:41;17.00;1.00
54264;DHT22;40178;53.042;6.406;2023-07-16T05:32:07;16.90;1.00
54264;DHT22;40178;53.042;6.406;2023-07-16T05:34:33;17.00;1.00
54264;DHT22;40178;53.042;6.406;2023-07-16T05:36:59;17.10;1.00
54264;DHT22;40178;53.042;6.406;2023-07-16T05:39:25;17.10;1.00
54264;DHT22;40178;53.042;6.406;2023-07-16T05:41:50;17.20;1.00
54264;DHT22;40178;53.042;6.406;2023-07-16T05:44:16;17.30;1.00
54264;DHT22;40178;53.042;6.406;2023-07-16T05:46:41;17.50;1.00
54264;DHT22;40178;53.042;6.406;2023-07-16T05:49:07;17.60;1.00
54264;DHT22;40178;53.042;6.406;2023-07-16T05:51:33;17.60;1.00
54264;DHT22;40178;53.042;6.406;2023-07-16T05:53:58;17.60;1.00
54264;DHT22;40178;53.042;6.406;2023-07-16T05:56:24;17.60;1.00
54264;DHT22;40178;53.042;6.406;2023-07-16T05:58:50;17.60;1.00
54264;DHT22;40178;53.042;6.406;2023-07-16T06:01:15;17.50;1.00
54264;DHT22;40178;53.042;6.406;2023-07-16T06:03:41;17.40;1.00
54264;DHT22;40178;53.042;6.406;2023-07-16T06:06:08;17.40;1.00
54264;DHT22;40178;53.042;6.406;2023-07-16T06:08:34;17.40;1.00
54264;DHT22;40178;53.042;6.406;2023-07-16T06:11:00;17.40;1.00
54264;DHT22;40178;53.042;6.406;2023-07-16T06:13:26;17.50;1.00
54264;DHT22;40178;53.042;6.406;2023-07-16T06:15:51;17.60;1.00
54264;DHT22;40178;53.042;6.406;2023-07-16T06:18:17;17.70;1.00
54264;DHT22;40178;53.042;6.406;2023-07-16T06:20:46;17.70;1.00
54264;DHT22;40178;53.042;6.406;2023-07-16T06:23:12;17.70;1.00
54264;DHT22;40178;53.042;6.406;2023-07-16T06:25:38;17.70;1.00
54264;DHT22;40178;53.042;6.406;2023-07-16T06:28:06;17.80;1.00
54264;DHT22;40178;53.042;6.406;2023-07-16T06:30:31;17.90;1.00
54264;DHT22;40178;53.042;6.406;2023-07-16T06:32:59;17.90;1.00
54264;DHT22;40178;53.042;6.406;2023-07-16T06:35:24;17.80;1.00
54264;DHT22;40178;53.042;6.406;2023-07-16T06:37:50;17.60;1.00
54264;DHT22;40178;53.042;6.406;2023-07-16T06:40:15;17.80;1.00
54264;DHT22;40178;53.042;6.406;2023-07-16T06:42:41;17.90;1.00
54264;DHT22;40178;53.042;6.406;2023-07-16T06:45:07;17.90;99.90
54264;DHT22;40178;53.042;6.406;2023-07-16T06:47:33;17.90;99.90
54264;DHT22;40178;53.042;6.406;2023-07-16T06:49:58;18.10;99.90
54264;DHT22;40178;53.042;6.406;2023-07-16T06:52:24;18.20;99.90
54264;DHT22;40178;53.042;6.406;2023-07-16T06:54:55;18.30;99.90
54264;DHT22;40178;53.042;6.406;2023-07-16T06:57:22;18.20;99.90
54264;DHT22;40178;53.042;6.406;2023-07-16T06:59:47;18.20;99.90
54264;DHT22;40178;53.042;6.406;2023-07-16T07:02:13;18.20;99.90
54264;DHT22;40178;53.042;6.406;2023-07-16T07:04:39;18.10;1.00
54264;DHT22;40178;53.042;6.406;2023-07-16T07:07:05;18.40;99.90
54264;DHT22;40178;53.042;6.406;2023-07-16T07:09:31;18.30;90.80
54264;DHT22;40178;53.042;6.406;2023-07-16T07:11:56;18.50;99.90
54264;DHT22;40178;53.042;6.406;2023-07-16T07:14:22;18.50;82.00
54264;DHT22;40178;53.042;6.406;2023-07-16T07:16:48;18.50;94.70
54264;DHT22;40178;53.042;6.406;2023-07-16T07:19:13;18.70;1.00
54264;DHT22;40178;53.042;6.406;2023-07-16T07:21:39;18.70;1.00
54264;DHT22;40178;53.042;6.406;2023-07-16T07:24:05;18.70;99.90
54264;DHT22;40178;53.042;6.406;2023-07-16T07:26:30;18.70;99.90
54264;DHT22;40178;53.042;6.406;2023-07-16T07:28:56;18.50;1.00
54264;DHT22;40178;53.042;6.406;2023-07-16T07:31:21;18.80;99.90
54264;DHT22;40178;53.042;6.406;2023-07-16T07:33:47;18.90;99.90
54264;DHT22;40178;53.042;6.406;2023-07-16T07:36:13;19.10;99.90
54264;DHT22;40178;53.042;6.406;2023-07-16T07:38:38;19.20;1.00
54264;DHT22;40178;53.042;6.406;2023-07-16T07:41:07;19.30;99.90
54264;DHT22;40178;53.042;6.406;2023-07-16T07:43:33;19.30;1.00
54264;DHT22;40178;53.042;6.406;2023-07-16T07:45:58;19.30;41.90
54264;DHT22;40178;53.042;6.406;2023-07-16T07:48:24;19.10;99.90
54264;DHT22;40178;53.042;6.406;2023-07-16T07:50:49;18.90;99.90
54264;DHT22;40178;53.042;6.406;2023-07-16T07:53:16;18.90;99.90
54264;DHT22;40178;53.042;6.406;2023-07-16T07:55:43;18.90;1.00
54264;DHT22;40178;53.042;6.406;2023-07-16T07:58:09;18.90;99.90
54264;DHT22;40178;53.042;6.406;2023-07-16T08:00:35;18.90;1.00
54264;DHT22;40178;53.042;6.406;2023-07-16T08:03:01;18.80;99.90
54264;DHT22;40178;53.042;6.406;2023-07-16T08:05:27;18.70;99.90
54264;DHT22;40178;53.042;6.406;2023-07-16T08:07:52;18.60;99.90
54264;DHT22;40178;53.042;6.406;2023-07-16T08:10:19;18.50;33.60
54264;DHT22;40178;53.042;6.406;2023-07-16T08:12:44;18.40;1.00
54264;DHT22;40178;53.042;6.406;2023-07-16T08:15:11;18.40;1.00
54264;DHT22;40178;53.042;6.406;2023-07-16T08:17:44;18.40;99.90
54264;DHT22;40178;53.042;6.406;2023-07-16T08:20:10;18.40;99.90
54264;DHT22;40178;53.042;6.406;2023-07-16T08:22:36;18.40;99.90
54264;DHT22;40178;53.042;6.406;2023-07-16T08:25:02;18.40;6.20
54264;DHT22;40178;53.042;6.406;2023-07-16T08:27:29;18.50;3.00
54264;DHT22;40178;53.042;6.406;2023-07-16T08:29:55;18.60;99.90
54264;DHT22;40178;53.042;6.406;2023-07-16T08:32:20;18.70;1.00
54264;DHT22;40178;53.042;6.406;2023-07-16T08:34:47;18.80;99.90
54264;DHT22;40178;53.042;6.406;2023-07-16T08:37:13;19.00;7.90
54264;DHT22;40178;53.042;6.406;2023-07-16T08:39:39;19.30;70.20
54264;DHT22;40178;53.042;6.406;2023-07-16T08:42:05;19.80;99.90
54264;DHT22;40178;53.042;6.406;2023-07-16T08:44:30;19.90;99.90
54264;DHT22;40178;53.042;6.406;2023-07-16T08:46:56;19.80;99.90
54264;DHT22;40178;53.042;6.406;2023-07-16T08:49:22;19.60;19.80
54264;DHT22;40178;53.042;6.406;2023-07-16T08:51:49;19.60;1.00
54264;DHT22;40178;53.042;6.406;2023-07-16T08:54:15;19.50;1.00
54264;DHT22;40178;53.042;6.406;2023-07-16T08:56:43;19.70;1.00
54264;DHT22;40178;53.042;6.406;2023-07-16T08:59:10;19.80;43.60
54264;DHT22;40178;53.042;6.406;2023-07-16T09:01:36;19.80;1.00
54264;DHT22;40178;53.042;6.406;2023-07-16T09:04:02;20.00;1.00
54264;DHT22;40178;53.042;6.406;2023-07-16T09:06:28;20.10;1.00
54264;DHT22;40178;53.042;6.406;2023-07-16T09:08:54;20.20;99.90
54264;DHT22;40178;53.042;6.406;2023-07-16T09:11:20;20.20;1.00
54264;DHT22;40178;53.042;6.406;2023-07-16T09:13:48;20.10;99.90
54264;DHT22;40178;53.042;6.406;2023-07-16T09:16:13;20.00;99.90
54264;DHT22;40178;53.042;6.406;2023-07-16T09:18:42;19.60;99.90
54264;DHT22;40178;53.042;6.406;2023-07-16T09:21:08;19.60;99.90
54264;DHT22;40178;53.042;6.406;2023-07-16T09:23:34;19.50;99.90
54264;DHT22;40178;53.042;6.406;2023-07-16T09:26:00;19.40;99.90
54264;DHT22;40178;53.042;6.406;2023-07-16T09:28:26;19.40;1.00
54264;DHT22;40178;53.042;6.406;2023-07-16T09:30:52;19.40;1.00
54264;DHT22;40178;53.042;6.406;2023-07-16T09:33:22;19.60;1.00
54264;DHT22;40178;53.042;6.406;2023-07-16T09:35:51;19.70;99.90
54264;DHT22;40178;53.042;6.406;2023-07-16T09:38:18;19.80;99.90
54264;DHT22;40178;53.042;6.406;2023-07-16T09:40:44;19.80;1.00
54264;DHT22;40178;53.042;6.406;2023-07-16T09:43:11;19.80;1.00
54264;DHT22;40178;53.042;6.406;2023-07-16T09:45:37;19.80;99.90
54264;DHT22;40178;53.042;6.406;2023-07-16T09:48:04;19.90;1.00
54264;DHT22;40178;53.042;6.406;2023-07-16T09:50:32;20.10;1.00
54264;DHT22;40178;53.042;6.406;2023-07-16T09:52:58;20.10;99.90
54264;DHT22;40178;53.042;6.406;2023-07-16T09:55:25;20.20;1.00
54264;DHT22;40178;53.042;6.406;2023-07-16T09:57:57;20.30;99.90
54264;DHT22;40178;53.042;6.406;2023-07-16T10:00:24;20.30;99.90
54264;DHT22;40178;53.042;6.406;2023-07-16T10:02:51;20.30;99.90
54264;DHT22;40178;53.042;6.406;2023-07-16T10:05:18;20.30;99.90
54264;DHT22;40178;53.042;6.406;2023-07-16T10:07:52;20.30;99.90
54264;DHT22;40178;53.042;6.406;2023-07-16T10:10:18;20.30;99.10
54264;DHT22;40178;53.042;6.406;2023-07-16T10:12:55;20.50;99.90
54264;DHT22;40178;53.042;6.406;2023-07-16T10:15:26;20.70;99.90
54264;DHT22;40178;53.042;6.406;2023-07-16T10:17:53;21.00;99.90
54264;DHT22;40178;53.042;6.406;2023-07-16T10:20:35;21.20;99.90
54264;DHT22;40178;53.042;6.406;2023-07-16T10:23:15;21.30;1.00
54264;DHT22;40178;53.042;6.406;2023-07-16T10:28:26;20.90;99.90
54264;DHT22;40178;53.042;6.406;2023-07-16T10:30:52;20.60;99.90
54264;DHT22;40178;53.042;6.406;2023-07-16T10:33:17;20.40;1.00
54264;DHT22;40178;53.042;6.406;2023-07-16T10:35:45;20.30;99.90
54264;DHT22;40178;53.042;6.406;2023-07-16T10:38:11;20.30;1.00
54264;DHT22;40178;53.042;6.406;2023-07-16T10:40:41;20.40;1.00
54264;DHT22;40178;53.042;6.406;2023-07-16T10:43:06;20.60;1.00
54264;DHT22;40178;53.042;6.406;2023-07-16T10:45:33;20.60;1.00
54264;DHT22;40178;53.042;6.406;2023-07-16T10:47:59;20.50;99.90
54264;DHT22;40178;53.042;6.406;2023-07-16T10:50:24;20.40;1.00
54264;DHT22;40178;53.042;6.406;2023-07-16T10:52:55;20.60;1.00
54264;DHT22;40178;53.042;6.406;2023-07-16T10:55:21;21.00;1.00
54264;DHT22;40178;53.042;6.406;2023-07-16T10:57:48;21.20;99.90
54264;DHT22;40178;53.042;6.406;2023-07-16T11:00:17;21.40;99.90
54264;DHT22;40178;53.042;6.406;2023-07-16T11:02:44;21.60;1.00
54264;DHT22;40178;53.042;6.406;2023-07-16T11:05:10;21.70;99.90
54264;DHT22;40178;53.042;6.406;2023-07-16T11:07:36;21.50;99.90
54264;DHT22;40178;53.042;6.406;2023-07-16T11:10:02;21.10;99.90
54264;DHT22;40178;53.042;6.406;2023-07-16T11:12:28;20.80;99.90
54264;DHT22;40178;53.042;6.406;2023-07-16T11:14:55;20.70;99.90
54264;DHT22;40178;53.042;6.406;2023-07-16T11:17:23;20.50;99.90
54264;DHT22;40178;53.042;6.406;2023-07-16T11:19:51;20.40;99.90
54264;DHT22;40178;53.042;6.406;2023-07-16T11:22:18;20.40;99.90
54264;DHT22;40178;53.042;6.406;2023-07-16T11:24:49;20.50;99.90
54264;DHT22;40178;53.042;6.406;2023-07-16T11:27:19;20.90;99.90
54264;DHT22;40178;53.042;6.406;2023-07-16T11:29:53;20.90;99.90
54264;DHT22;40178;53.042;6.406;2023-07-16T11:34:58;20.40;99.90
54264;DHT22;40178;53.042;6.406;2023-07-16T11:37:28;20.30;99.90
54264;DHT22;40178;53.042;6.406;2023-07-16T11:40:08;20.20;99.90
54264;DHT22;40178;53.042;6.406;2023-07-16T11:42:36;20.10;99.90
54264;DHT22;40178;53.042;6.406;2023-07-16T11:45:03;20.00;99.90
54264;DHT22;40178;53.042;6.406;2023-07-16T11:47:29;19.90;99.90
54264;DHT22;40178;53.042;6.406;2023-07-16T11:49:56;19.90;31.60
54264;DHT22;40178;53.042;6.406;2023-07-16T11:52:27;20.00;99.90
54264;DHT22;40178;53.042;6.406;2023-07-16T11:54:56;20.10;99.90
54264;DHT22;40178;53.042;6.406;2023-07-16T11:57:21;20.30;36.70
54264;DHT22;40178;53.042;6.406;2023-07-16T11:59:47;20.50;35.80
54264;DHT22;40178;53.042;6.406;2023-07-16T12:02:13;20.60;1.00
54264;DHT22;40178;53.042;6.406;2023-07-16T12:04:39;20.80;1.00
54264;DHT22;40178;53.042;6.406;2023-07-16T12:07:04;20.80;1.00
54264;DHT22;40178;53.042;6.406;2023-07-16T12:09:30;20.60;1.00
54264;DHT22;40178;53.042;6.406;2023-07-16T12:11:56;20.40;1.00
54264;DHT22;40178;53.042;6.406;2023-07-16T12:14:22;20.30;1.00
54264;DHT22;40178;53.042;6.406;2023-07-16T12:16:48;20.20;34.20
54264;DHT22;40178;53.042;6.406;2023-07-16T12:19:13;20.50;99.90
54264;DHT22;40178;53.042;6.406;2023-07-16T12:21:39;20.90;1.00
54264;DHT22;40178;53.042;6.406;2023-07-16T12:24:05;21.00;99.90
54264;DHT22;40178;53.042;6.406;2023-07-16T12:26:31;21.00;1.00
54264;DHT22;40178;53.042;6.406;2023-07-16T12:28:57;20.90;1.00
54264;DHT22;40178;53.042;6.406;2023-07-16T12:31:22;20.60;1.00
54264;DHT22;40178;53.042;6.406;2023-07-16T12:33:48;20.30;87.20
54264;DHT22;40178;53.042;6.406;2023-07-16T12:36:14;20.00;1.00
54264;DHT22;40178;53.042;6.406;2023-07-16T12:38:40;20.30;99.90
54264;DHT22;40178;53.042;6.406;2023-07-16T12:41:06;20.70;99.90
54264;DHT22;40178;53.042;6.406;2023-07-16T12:43:32;21.00;99.90
54264;DHT22;40178;53.042;6.406;2023-07-16T12:46:03;21.10;99.90
54264;DHT22;40178;53.042;6.406;2023-07-16T12:48:32;21.20;99.90
54264;DHT22;40178;53.042;6.406;2023-07-16T12:50:58;21.00;94.40
54264;DHT22;40178;53.042;6.406;2023-07-16T12:53:24;20.80;1.00
54264;DHT22;40178;53.042;6.406;2023-07-16T12:55:50;20.70;1.00
54264;DHT22;40178;53.042;6.406;2023-07-16T12:58:16;20.60;1.00
54264;DHT22;40178;53.042;6.406;2023-07-16T13:00:41;20.60;1.00
54264;DHT22;40178;53.042;6.406;2023-07-16T13:03:07;20.60;1.00
54264;DHT22;40178;53.042;6.406;2023-07-16T13:05:37;20.50;1.00
54264;DHT22;40178;53.042;6.406;2023-07-16T13:08:03;20.50;7.50
54264;DHT22;40178;53.042;6.406;2023-07-16T13:10:29;20.70;93.20
54264;DHT22;40178;53.042;6.406;2023-07-16T13:12:54;21.30;99.90
54264;DHT22;40178;53.042;6.406;2023-07-16T13:15:20;21.40;1.00
54264;DHT22;40178;53.042;6.406;2023-07-16T13:17:46;21.40;1.00
54264;DHT22;40178;53.042;6.406;2023-07-16T13:20:13;21.60;1.00
54264;DHT22;40178;53.042;6.406;2023-07-16T13:22:38;21.50;1.00
54264;DHT22;40178;53.042;6.406;2023-07-16T13:25:04;21.50;1.00
54264;DHT22;40178;53.042;6.406;2023-07-16T13:27:30;21.30;99.90
54264;DHT22;40178;53.042;6.406;2023-07-16T13:29:56;21.10;99.90
54264;DHT22;40178;53.042;6.406;2023-07-16T13:32:21;21.00;99.90
54264;DHT22;40178;53.042;6.406;2023-07-16T13:34:47;21.00;99.90
54264;DHT22;40178;53.042;6.406;2023-07-16T13:37:13;21.00;99.90
54264;DHT22;40178;53.042;6.406;2023-07-16T13:39:39;21.00;99.90
54264;DHT22;40178;53.042;6.406;2023-07-16T13:42:05;21.00;99.90
54264;DHT22;40178;53.042;6.406;2023-07-16T13:44:35;21.00;99.90
54264;DHT22;40178;53.042;6.406;2023-07-16T13:47:00;21.10;99.90
54264;DHT22;40178;53.042;6.406;2023-07-16T13:49:26;21.10;99.90
54264;DHT22;40178;53.042;6.406;2023-07-16T13:51:51;21.10;99.90
54264;DHT22;40178;53.042;6.406;2023-07-16T13:54:17;21.10;99.90
54264;DHT22;40178;53.042;6.406;2023-07-16T13:56:43;21.20;99.90
54264;DHT22;40178;53.042;6.406;2023-07-16T13:59:08;21.70;99.90
54264;DHT22;40178;53.042;6.406;2023-07-16T14:01:38;21.80;99.90
54264;DHT22;40178;53.042;6.406;2023-07-16T14:04:04;22.00;99.90
54264;DHT22;40178;53.042;6.406;2023-07-16T14:06:30;22.10;99.90
54264;DHT22;40178;53.042;6.406;2023-07-16T14:08:56;22.00;96.70
54264;DHT22;40178;53.042;6.406;2023-07-16T14:11:22;21.90;45.50
54264;DHT22;40178;53.042;6.406;2023-07-16T14:13:48;21.90;17.50
54264;DHT22;40178;53.042;6.406;2023-07-16T14:16:20;22.20;51.90
54264;DHT22;40178;53.042;6.406;2023-07-16T14:18:50;22.30;1.00
54264;DHT22;40178;53.042;6.406;2023-07-16T14:21:17;22.40;1.00
54264;DHT22;40178;53.042;6.406;2023-07-16T14:23:42;22.60;1.00
54264;DHT22;40178;53.042;6.406;2023-07-16T14:26:08;22.40;1.00
54264;DHT22;40178;53.042;6.406;2023-07-16T14:28:34;22.30;99.90
54264;DHT22;40178;53.042;6.406;2023-07-16T14:30:59;22.30;99.90
54264;DHT22;40178;53.042;6.406;2023-07-16T14:33:25;22.20;99.90
54264;DHT22;40178;53.042;6.406;2023-07-16T14:35:50;22.10;99.90
54264;DHT22;40178;53.042;6.406;2023-07-16T14:38:16;22.10;99.90
54264;DHT22;40178;53.042;6.406;2023-07-16T14:40:42;22.10;99.90
54264;DHT22;40178;53.042;6.406;2023-07-16T14:43:07;22.20;99.90
54264;DHT22;40178;53.042;6.406;2023-07-16T14:45:34;22.10;99.90
54264;DHT22;40178;53.042;6.406;2023-07-16T14:48:00;22.20;99.90
54264;DHT22;40178;53.042;6.406;2023-07-16T14:50:26;22.60;99.90
54264;DHT22;40178;53.042;6.406;2023-07-16T14:52:52;22.80;99.90
54264;DHT22;40178;53.042;6.406;2023-07-16T14:55:18;22.90;99.90
54264;DHT22;40178;53.042;6.406;2023-07-16T14:57:44;22.80;99.90
54264;DHT22;40178;53.042;6.406;2023-07-16T15:00:10;22.50;99.90
54264;DHT22;40178;53.042;6.406;2023-07-16T15:02:39;22.20;99.90
54264;DHT22;40178;53.042;6.406;2023-07-16T15:05:05;22.10;99.90
54264;DHT22;40178;53.042;6.406;2023-07-16T15:07:31;22.10;99.90
54264;DHT22;40178;53.042;6.406;2023-07-16T15:09:56;22.00;99.90
54264;DHT22;40178;53.042;6.406;2023-07-16T15:12:22;21.90;99.90
54264;DHT22;40178;53.042;6.406;2023-07-16T15:14:48;21.80;99.90
54264;DHT22;40178;53.042;6.406;2023-07-16T15:17:13;21.80;99.90
54264;DHT22;40178;53.042;6.406;2023-07-16T15:19:39;21.80;99.90
54264;DHT22;40178;53.042;6.406;2023-07-16T15:22:06;21.80;99.90
54264;DHT22;40178;53.042;6.406;2023-07-16T15:24:32;21.70;99.90
54264;DHT22;40178;53.042;6.406;2023-07-16T15:26:58;21.70;99.90
54264;DHT22;40178;53.042;6.406;2023-07-16T15:29:23;21.60;99.90
54264;DHT22;40178;53.042;6.406;2023-07-16T15:31:49;21.50;99.90
54264;DHT22;40178;53.042;6.406;2023-07-16T15:34:15;21.40;99.90
54264;DHT22;40178;53.042;6.406;2023-07-16T15:36:40;21.20;99.90
54264;DHT22;40178;53.042;6.406;2023-07-16T15:39:06;21.00;99.90
54264;DHT22;40178;53.042;6.406;2023-07-16T15:41:32;21.00;99.90
54264;DHT22;40178;53.042;6.406;2023-07-16T15:43:58;20.90;99.90
54264;DHT22;40178;53.042;6.406;2023-07-16T15:46:24;20.80;99.90
54264;DHT22;40178;53.042;6.406;2023-07-16T15:48:49;20.90;99.90